Rolinda, California
Current Conditions -  °F | °C
As of 8:41 AM on Friday 21 Nov 2014 (Local Time) from KFAT Reporting Station
Haze Haze  
Wind Chill: 51°   Ceiling: 600
Heat Index: 51°   Visibility: 6mi
Dew Point: 49°   Wind: 7mph
Humidity: 92%   Direction: 340°NNW
Pressure: 30.11"   Gusts: NA
Location:  36.6563°N, 119.904°W
Report Text: KFAT 211641Z 34006KT 6SM BR OVC006 11/09 A3011 RMK AO2 T01060094
Loading
Personal Weather Stations






























Interactive Weather Map New forecast layout! Learn more

10-Day Weather Forecast

Advertisements
Track Severe Weather on mobile